sensor_id;sensor_type;location;lat;lon;timestamp;P1;durP1;ratioP1;P2;durP2;ratioP2
18838;SDS011;9548;56.920;14.804;2022-08-01T00:00:30;0.50;;;0.50;;
18838;SDS011;9548;56.920;14.804;2022-08-01T00:02:57;1.85;;;0.65;;
18838;SDS011;9548;56.920;14.804;2022-08-01T00:05:25;0.50;;;0.50;;
18838;SDS011;9548;56.920;14.804;2022-08-01T00:07:53;0.65;;;0.65;;
18838;SDS011;9548;56.920;14.804;2022-08-01T00:10:20;1.05;;;0.65;;
18838;SDS011;9548;56.920;14.804;2022-08-01T00:12:47;0.82;;;0.70;;
18838;SDS011;9548;56.920;14.804;2022-08-01T00:15:15;0.95;;;0.60;;
18838;SDS011;9548;56.920;14.804;2022-08-01T00:17:43;0.50;;;0.50;;
18838;SDS011;9548;56.920;14.804;2022-08-01T00:20:11;1.17;;;0.60;;
18838;SDS011;9548;56.920;14.804;2022-08-01T00:22:39;2.88;;;0.80;;
18838;SDS011;9548;56.920;14.804;2022-08-01T00:25:08;0.50;;;0.50;;
18838;SDS011;9548;56.920;14.804;2022-08-01T00:27:35;2.17;;;0.68;;
18838;SDS011;9548;56.920;14.804;2022-08-01T00:30:02;0.68;;;0.65;;
18838;SDS011;9548;56.920;14.804;2022-08-01T00:32:30;1.63;;;0.63;;
18838;SDS011;9548;56.920;14.804;2022-08-01T00:34:57;2.05;;;0.80;;
18838;SDS011;9548;56.920;14.804;2022-08-01T00:37:24;0.68;;;0.68;;
18838;SDS011;9548;56.920;14.804;2022-08-01T00:39:51;0.50;;;0.50;;
18838;SDS011;9548;56.920;14.804;2022-08-01T00:42:19;0.75;;;0.55;;
18838;SDS011;9548;56.920;14.804;2022-08-01T00:44:47;1.52;;;0.70;;
18838;SDS011;9548;56.920;14.804;2022-08-01T00:47:14;1.90;;;0.80;;
18838;SDS011;9548;56.920;14.804;2022-08-01T00:49:41;1.83;;;0.68;;
18838;SDS011;9548;56.920;14.804;2022-08-01T00:52:08;0.60;;;0.60;;
18838;SDS011;9548;56.920;14.804;2022-08-01T00:54:36;1.10;;;0.70;;
18838;SDS011;9548;56.920;14.804;2022-08-01T00:57:04;0.52;;;0.50;;
18838;SDS011;9548;56.920;14.804;2022-08-01T00:59:33;0.50;;;0.50;;
18838;SDS011;9548;56.920;14.804;2022-08-01T01:02:00;1.90;;;0.50;;
18838;SDS011;9548;56.920;14.804;2022-08-01T01:04:27;1.63;;;0.75;;
18838;SDS011;9548;56.920;14.804;2022-08-01T01:06:56;0.77;;;0.77;;
18838;SDS011;9548;56.920;14.804;2022-08-01T01:09:33;2.35;;;0.90;;
18838;SDS011;9548;56.920;14.804;2022-08-01T01:12:08;0.52;;;0.50;;
18838;SDS011;9548;56.920;14.804;2022-08-01T01:14:44;3.83;;;0.80;;
18838;SDS011;9548;56.920;14.804;2022-08-01T01:17:16;0.60;;;0.52;;
18838;SDS011;9548;56.920;14.804;2022-08-01T01:19:48;1.17;;;0.80;;
18838;SDS011;9548;56.920;14.804;2022-08-01T01:22:24;0.95;;;0.73;;
18838;SDS011;9548;56.920;14.804;2022-08-01T01:25:04;1.45;;;0.75;;
18838;SDS011;9548;56.920;14.804;2022-08-01T01:27:39;3.53;;;0.90;;
18838;SDS011;9548;56.920;14.804;2022-08-01T01:30:16;0.70;;;0.70;;
18838;SDS011;9548;56.920;14.804;2022-08-01T01:32:43;1.20;;;0.73;;
18838;SDS011;9548;56.920;14.804;2022-08-01T01:35:15;1.75;;;0.73;;
18838;SDS011;9548;56.920;14.804;2022-08-01T01:37:47;1.23;;;0.90;;
18838;SDS011;9548;56.920;14.804;2022-08-01T01:40:17;0.82;;;0.63;;
18838;SDS011;9548;56.920;14.804;2022-08-01T01:42:46;1.48;;;0.88;;
18838;SDS011;9548;56.920;14.804;2022-08-01T01:45:13;0.82;;;0.80;;
18838;SDS011;9548;56.920;14.804;2022-08-01T01:47:43;0.70;;;0.70;;
18838;SDS011;9548;56.920;14.804;2022-08-01T01:50:12;1.65;;;0.80;;
18838;SDS011;9548;56.920;14.804;2022-08-01T01:52:40;1.50;;;0.88;;
18838;SDS011;9548;56.920;14.804;2022-08-01T01:55:10;2.42;;;0.70;;
18838;SDS011;9548;56.920;14.804;2022-08-01T01:57:39;0.75;;;0.60;;
18838;SDS011;9548;56.920;14.804;2022-08-01T02:00:08;1.85;;;0.85;;
18838;SDS011;9548;56.920;14.804;2022-08-01T02:02:39;3.72;;;0.90;;
18838;SDS011;9548;56.920;14.804;2022-08-01T02:05:08;0.80;;;0.70;;
18838;SDS011;9548;56.920;14.804;2022-08-01T02:07:37;0.60;;;0.60;;
18838;SDS011;9548;56.920;14.804;2022-08-01T02:10:07;0.68;;;0.68;;
18838;SDS011;9548;56.920;14.804;2022-08-01T02:12:36;0.60;;;0.60;;
18838;SDS011;9548;56.920;14.804;2022-08-01T02:15:07;1.27;;;0.85;;
18838;SDS011;9548;56.920;14.804;2022-08-01T02:17:37;0.98;;;0.80;;
18838;SDS011;9548;56.920;14.804;2022-08-01T02:20:08;1.02;;;0.60;;
18838;SDS011;9548;56.920;14.804;2022-08-01T02:22:36;1.77;;;0.80;;
18838;SDS011;9548;56.920;14.804;2022-08-01T02:25:09;0.60;;;0.60;;
18838;SDS011;9548;56.920;14.804;2022-08-01T02:27:44;0.77;;;0.77;;
18838;SDS011;9548;56.920;14.804;2022-08-01T02:30:16;0.70;;;0.70;;
18838;SDS011;9548;56.920;14.804;2022-08-01T02:32:46;2.42;;;0.73;;
18838;SDS011;9548;56.920;14.804;2022-08-01T02:35:18;0.85;;;0.80;;
18838;SDS011;9548;56.920;14.804;2022-08-01T02:37:48;2.20;;;0.95;;
18838;SDS011;9548;56.920;14.804;2022-08-01T02:40:16;0.85;;;0.55;;
18838;SDS011;9548;56.920;14.804;2022-08-01T02:42:45;1.50;;;0.73;;
18838;SDS011;9548;56.920;14.804;2022-08-01T02:45:16;0.80;;;0.80;;
18838;SDS011;9548;56.920;14.804;2022-08-01T02:47:46;1.20;;;0.70;;
18838;SDS011;9548;56.920;14.804;2022-08-01T02:50:16;1.70;;;0.82;;
18838;SDS011;9548;56.920;14.804;2022-08-01T02:52:45;0.90;;;0.77;;
18838;SDS011;9548;56.920;14.804;2022-08-01T02:55:15;1.85;;;0.70;;
18838;SDS011;9548;56.920;14.804;2022-08-01T02:57:44;1.85;;;0.65;;
18838;SDS011;9548;56.920;14.804;2022-08-01T03:00:13;1.13;;;0.80;;
18838;SDS011;9548;56.920;14.804;2022-08-01T03:02:42;2.20;;;0.85;;
18838;SDS011;9548;56.920;14.804;2022-08-01T03:05:12;3.20;;;1.13;;
18838;SDS011;9548;56.920;14.804;2022-08-01T03:07:41;1.58;;;1.02;;
18838;SDS011;9548;56.920;14.804;2022-08-01T03:10:08;1.83;;;0.85;;
18838;SDS011;9548;56.920;14.804;2022-08-01T03:12:37;1.30;;;0.80;;
18838;SDS011;9548;56.920;14.804;2022-08-01T03:15:06;1.40;;;0.90;;
18838;SDS011;9548;56.920;14.804;2022-08-01T03:17:36;1.42;;;0.90;;
18838;SDS011;9548;56.920;14.804;2022-08-01T03:20:05;1.65;;;1.05;;
18838;SDS011;9548;56.920;14.804;2022-08-01T03:22:36;0.90;;;0.88;;
18838;SDS011;9548;56.920;14.804;2022-08-01T03:25:05;0.80;;;0.80;;
18838;SDS011;9548;56.920;14.804;2022-08-01T03:27:34;2.70;;;0.90;;
18838;SDS011;9548;56.920;14.804;2022-08-01T03:30:03;3.28;;;0.90;;
18838;SDS011;9548;56.920;14.804;2022-08-01T03:32:32;0.80;;;0.80;;
18838;SDS011;9548;56.920;14.804;2022-08-01T03:34:59;1.50;;;0.90;;
18838;SDS011;9548;56.920;14.804;2022-08-01T03:37:27;2.05;;;0.85;;
18838;SDS011;9548;56.920;14.804;2022-08-01T03:40:02;1.65;;;0.90;;
18838;SDS011;9548;56.920;14.804;2022-08-01T03:42:32;0.90;;;0.73;;
18838;SDS011;9548;56.920;14.804;2022-08-01T03:45:04;2.00;;;0.73;;
18838;SDS011;9548;56.920;14.804;2022-08-01T03:47:34;1.00;;;0.73;;
18838;SDS011;9548;56.920;14.804;2022-08-01T03:50:02;3.95;;;0.80;;
18838;SDS011;9548;56.920;14.804;2022-08-01T03:52:32;1.13;;;0.82;;
18838;SDS011;9548;56.920;14.804;2022-08-01T03:55:05;1.05;;;0.80;;
18838;SDS011;9548;56.920;14.804;2022-08-01T03:57:34;3.28;;;1.10;;
18838;SDS011;9548;56.920;14.804;2022-08-01T04:00:02;1.48;;;0.90;;
18838;SDS011;9548;56.920;14.804;2022-08-01T04:02:32;1.83;;;0.70;;
18838;SDS011;9548;56.920;14.804;2022-08-01T04:04:59;0.85;;;0.75;;
18838;SDS011;9548;56.920;14.804;2022-08-01T04:07:26;1.45;;;0.73;;
18838;SDS011;9548;56.920;14.804;2022-08-01T04:09:55;0.75;;;0.75;;
18838;SDS011;9548;56.920;14.804;2022-08-01T04:12:24;2.47;;;1.25;;
18838;SDS011;9548;56.920;14.804;2022-08-01T04:14:51;4.03;;;1.00;;
18838;SDS011;9548;56.920;14.804;2022-08-01T04:17:18;0.80;;;0.80;;
18838;SDS011;9548;56.920;14.804;2022-08-01T04:19:45;0.90;;;0.90;;
18838;SDS011;9548;56.920;14.804;2022-08-01T04:22:13;1.33;;;0.90;;
18838;SDS011;9548;56.920;14.804;2022-08-01T04:24:41;0.73;;;0.70;;
18838;SDS011;9548;56.920;14.804;2022-08-01T04:27:14;1.10;;;1.00;;
18838;SDS011;9548;56.920;14.804;2022-08-01T04:29:49;3.13;;;1.05;;
18838;SDS011;9548;56.920;14.804;2022-08-01T04:32:19;0.80;;;0.80;;
18838;SDS011;9548;56.920;14.804;2022-08-01T04:34:48;1.10;;;1.00;;
18838;SDS011;9548;56.920;14.804;2022-08-01T04:37:16;1.75;;;0.88;;
18838;SDS011;9548;56.920;14.804;2022-08-01T04:39:45;1.10;;;1.00;;
18838;SDS011;9548;56.920;14.804;2022-08-01T04:42:13;1.40;;;1.30;;
18838;SDS011;9548;56.920;14.804;2022-08-01T04:44:40;1.25;;;1.05;;
18838;SDS011;9548;56.920;14.804;2022-08-01T04:47:09;1.20;;;1.10;;
18838;SDS011;9548;56.920;14.804;2022-08-01T04:49:37;1.15;;;1.05;;
18838;SDS011;9548;56.920;14.804;2022-08-01T04:52:06;3.10;;;1.00;;
18838;SDS011;9548;56.920;14.804;2022-08-01T04:54:34;1.23;;;1.13;;
18838;SDS011;9548;56.920;14.804;2022-08-01T04:57:03;0.90;;;0.90;;
18838;SDS011;9548;56.920;14.804;2022-08-01T04:59:31;1.95;;;0.90;;
18838;SDS011;9548;56.920;14.804;2022-08-01T05:02:08;1.30;;;1.17;;
18838;SDS011;9548;56.920;14.804;2022-08-01T05:04:37;1.65;;;1.10;;
18838;SDS011;9548;56.920;14.804;2022-08-01T05:07:06;1.30;;;1.20;;
18838;SDS011;9548;56.920;14.804;2022-08-01T05:09:33;1.00;;;1.00;;
18838;SDS011;9548;56.920;14.804;2022-08-01T05:12:01;1.58;;;1.20;;
18838;SDS011;9548;56.920;14.804;2022-08-01T05:14:29;1.35;;;1.25;;
18838;SDS011;9548;56.920;14.804;2022-08-01T05:16:57;1.30;;;1.20;;
18838;SDS011;9548;56.920;14.804;2022-08-01T05:19:26;3.10;;;1.42;;
18838;SDS011;9548;56.920;14.804;2022-08-01T05:21:53;1.17;;;1.05;;
18838;SDS011;9548;56.920;14.804;2022-08-01T05:24:20;1.20;;;1.10;;
18838;SDS011;9548;56.920;14.804;2022-08-01T05:26:47;1.05;;;1.02;;
18838;SDS011;9548;56.920;14.804;2022-08-01T05:29:15;1.67;;;1.45;;
18838;SDS011;9548;56.920;14.804;2022-08-01T05:31:42;1.52;;;1.20;;
18838;SDS011;9548;56.920;14.804;2022-08-01T05:34:09;1.73;;;1.30;;
18838;SDS011;9548;56.920;14.804;2022-08-01T05:36:37;1.45;;;1.35;;
18838;SDS011;9548;56.920;14.804;2022-08-01T05:39:04;2.83;;;2.10;;
18838;SDS011;9548;56.920;14.804;2022-08-01T05:41:31;1.85;;;1.52;;
18838;SDS011;9548;56.920;14.804;2022-08-01T05:43:59;2.20;;;2.00;;
18838;SDS011;9548;56.920;14.804;2022-08-01T05:46:25;1.90;;;1.70;;
18838;SDS011;9548;56.920;14.804;2022-08-01T05:48:53;1.75;;;1.63;;
18838;SDS011;9548;56.920;14.804;2022-08-01T05:51:20;2.30;;;1.65;;
18838;SDS011;9548;56.920;14.804;2022-08-01T05:53:48;1.98;;;1.77;;
18838;SDS011;9548;56.920;14.804;2022-08-01T05:56:15;1.75;;;1.63;;
18838;SDS011;9548;56.920;14.804;2022-08-01T05:58:42;1.60;;;1.50;;
18838;SDS011;9548;56.920;14.804;2022-08-01T06:01:09;1.63;;;1.52;;
18838;SDS011;9548;56.920;14.804;2022-08-01T06:03:36;1.83;;;1.73;;
18838;SDS011;9548;56.920;14.804;2022-08-01T06:06:04;3.75;;;1.45;;
18838;SDS011;9548;56.920;14.804;2022-08-01T06:08:31;3.13;;;1.80;;
18838;SDS011;9548;56.920;14.804;2022-08-01T06:10:59;1.60;;;1.50;;
18838;SDS011;9548;56.920;14.804;2022-08-01T06:13:27;1.50;;;1.40;;
18838;SDS011;9548;56.920;14.804;2022-08-01T06:15:54;3.65;;;1.80;;
18838;SDS011;9548;56.920;14.804;2022-08-01T06:18:21;1.63;;;1.52;;
18838;SDS011;9548;56.920;14.804;2022-08-01T06:20:48;2.97;;;2.00;;
18838;SDS011;9548;56.920;14.804;2022-08-01T06:23:15;2.33;;;1.70;;
18838;SDS011;9548;56.920;14.804;2022-08-01T06:25:42;2.72;;;1.70;;
18838;SDS011;9548;56.920;14.804;2022-08-01T06:28:10;2.65;;;2.13;;
18838;SDS011;9548;56.920;14.804;2022-08-01T06:30:37;2.08;;;1.88;;
18838;SDS011;9548;56.920;14.804;2022-08-01T06:33:04;8.15;;;2.35;;
18838;SDS011;9548;56.920;14.804;2022-08-01T06:35:31;1.98;;;1.80;;
18838;SDS011;9548;56.920;14.804;2022-08-01T06:37:58;3.22;;;2.42;;
18838;SDS011;9548;56.920;14.804;2022-08-01T06:40:25;3.72;;;2.25;;
18838;SDS011;9548;56.920;14.804;2022-08-01T06:42:53;2.50;;;2.03;;
18838;SDS011;9548;56.920;14.804;2022-08-01T06:45:21;2.60;;;1.77;;
18838;SDS011;9548;56.920;14.804;2022-08-01T06:47:49;2.30;;;2.10;;
18838;SDS011;9548;56.920;14.804;2022-08-01T06:50:18;2.20;;;2.00;;
18838;SDS011;9548;56.920;14.804;2022-08-01T06:52:45;2.20;;;1.98;;
18838;SDS011;9548;56.920;14.804;2022-08-01T06:55:12;3.35;;;1.80;;
18838;SDS011;9548;56.920;14.804;2022-08-01T06:57:44;1.80;;;1.70;;
18838;SDS011;9548;56.920;14.804;2022-08-01T07:00:13;2.53;;;2.13;;
18838;SDS011;9548;56.920;14.804;2022-08-01T07:02:45;1.63;;;1.52;;
18838;SDS011;9548;56.920;14.804;2022-08-01T07:05:12;1.75;;;1.65;;
18838;SDS011;9548;56.920;14.804;2022-08-01T07:07:39;1.80;;;1.50;;
18838;SDS011;9548;56.920;14.804;2022-08-01T07:10:06;2.17;;;1.60;;
18838;SDS011;9548;56.920;14.804;2022-08-01T07:12:34;4.00;;;1.45;;
18838;SDS011;9548;56.920;14.804;2022-08-01T07:15:03;1.60;;;1.50;;
18838;SDS011;9548;56.920;14.804;2022-08-01T07:17:31;2.35;;;1.63;;
18838;SDS011;9548;56.920;14.804;2022-08-01T07:19:59;2.47;;;1.52;;
18838;SDS011;9548;56.920;14.804;2022-08-01T07:22:27;2.70;;;1.45;;
18838;SDS011;9548;56.920;14.804;2022-08-01T07:24:54;2.97;;;1.42;;
18838;SDS011;9548;56.920;14.804;2022-08-01T07:27:21;2.92;;;1.50;;
18838;SDS011;9548;56.920;14.804;2022-08-01T07:29:48;1.80;;;1.67;;
18838;SDS011;9548;56.920;14.804;2022-08-01T07:32:15;1.30;;;1.20;;
18838;SDS011;9548;56.920;14.804;2022-08-01T07:34:42;1.50;;;1.40;;
18838;SDS011;9548;56.920;14.804;2022-08-01T07:37:10;2.83;;;1.40;;
18838;SDS011;9548;56.920;14.804;2022-08-01T07:39:37;1.70;;;1.33;;
18838;SDS011;9548;56.920;14.804;2022-08-01T07:42:04;1.20;;;1.10;;
18838;SDS011;9548;56.920;14.804;2022-08-01T07:44:31;3.28;;;1.30;;
18838;SDS011;9548;56.920;14.804;2022-08-01T07:46:58;1.35;;;1.15;;
18838;SDS011;9548;56.920;14.804;2022-08-01T07:49:26;1.10;;;1.00;;
18838;SDS011;9548;56.920;14.804;2022-08-01T07:51:53;1.20;;;1.10;;
18838;SDS011;9548;56.920;14.804;2022-08-01T07:54:21;4.13;;;1.23;;
18838;SDS011;9548;56.920;14.804;2022-08-01T07:56:48;2.53;;;1.10;;
18838;SDS011;9548;56.920;14.804;2022-08-01T07:59:16;1.10;;;1.00;;
18838;SDS011;9548;56.920;14.804;2022-08-01T08:01:47;1.20;;;0.85;;
18838;SDS011;9548;56.920;14.804;2022-08-01T08:04:14;0.93;;;0.90;;
18838;SDS011;9548;56.920;14.804;2022-08-01T08:06:41;1.83;;;0.90;;
18838;SDS011;9548;56.920;14.804;2022-08-01T08:09:09;2.63;;;0.88;;
18838;SDS011;9548;56.920;14.804;2022-08-01T08:11:38;1.35;;;0.98;;
18838;SDS011;9548;56.920;14.804;2022-08-01T08:14:05;0.90;;;0.85;;
18838;SDS011;9548;56.920;14.804;2022-08-01T08:16:32;0.82;;;0.80;;
18838;SDS011;9548;56.920;14.804;2022-08-01T08:18:59;0.73;;;0.73;;
18838;SDS011;9548;56.920;14.804;2022-08-01T08:21:26;1.75;;;1.10;;
18838;SDS011;9548;56.920;14.804;2022-08-01T08:23:53;0.95;;;0.75;;
18838;SDS011;9548;56.920;14.804;2022-08-01T08:26:39;3.33;;;0.82;;
18838;SDS011;9548;56.920;14.804;2022-08-01T08:29:06;1.75;;;0.80;;
18838;SDS011;9548;56.920;14.804;2022-08-01T08:31:33;2.13;;;1.00;;
18838;SDS011;9548;56.920;14.804;2022-08-01T08:34:01;2.88;;;1.00;;
18838;SDS011;9548;56.920;14.804;2022-08-01T08:36:27;2.78;;;0.70;;
18838;SDS011;9548;56.920;14.804;2022-08-01T08:38:54;0.65;;;0.65;;
18838;SDS011;9548;56.920;14.804;2022-08-01T08:41:22;1.50;;;1.00;;
18838;SDS011;9548;56.920;14.804;2022-08-01T08:43:50;0.95;;;0.80;;
18838;SDS011;9548;56.920;14.804;2022-08-01T08:46:18;2.40;;;0.90;;
18838;SDS011;9548;56.920;14.804;2022-08-01T08:48:46;3.97;;;0.90;;
18838;SDS011;9548;56.920;14.804;2022-08-01T08:51:13;1.98;;;0.80;;
18838;SDS011;9548;56.920;14.804;2022-08-01T08:53:44;0.90;;;0.90;;
18838;SDS011;9548;56.920;14.804;2022-08-01T08:56:13;0.80;;;0.80;;
18838;SDS011;9548;56.920;14.804;2022-08-01T08:58:41;0.80;;;0.80;;
18838;SDS011;9548;56.920;14.804;2022-08-01T09:01:12;1.65;;;0.90;;
18838;SDS011;9548;56.920;14.804;2022-08-01T09:03:41;0.90;;;0.90;;
18838;SDS011;9548;56.920;14.804;2022-08-01T09:06:08;1.02;;;0.80;;
18838;SDS011;9548;56.920;14.804;2022-08-01T09:08:36;1.38;;;0.90;;
18838;SDS011;9548;56.920;14.804;2022-08-01T09:11:03;3.45;;;0.90;;
18838;SDS011;9548;56.920;14.804;2022-08-01T09:13:30;1.25;;;0.73;;
18838;SDS011;9548;56.920;14.804;2022-08-01T09:15:57;0.65;;;0.60;;
18838;SDS011;9548;56.920;14.804;2022-08-01T09:18:30;0.82;;;0.70;;
18838;SDS011;9548;56.920;14.804;2022-08-01T09:21:12;1.73;;;0.65;;
18838;SDS011;9548;56.920;14.804;2022-08-01T09:23:42;4.50;;;0.98;;
18838;SDS011;9548;56.920;14.804;2022-08-01T09:26:11;1.00;;;0.90;;
18838;SDS011;9548;56.920;14.804;2022-08-01T09:28:40;0.80;;;0.80;;
18838;SDS011;9548;56.920;14.804;2022-08-01T09:31:08;2.38;;;0.80;;
18838;SDS011;9548;56.920;14.804;2022-08-01T09:33:54;3.08;;;0.88;;
18838;SDS011;9548;56.920;14.804;2022-08-01T09:36:22;2.45;;;0.90;;
18838;SDS011;9548;56.920;14.804;2022-08-01T09:38:51;0.77;;;0.77;;
18838;SDS011;9548;56.920;14.804;2022-08-01T09:41:28;1.27;;;0.82;;
18838;SDS011;9548;56.920;14.804;2022-08-01T09:43:56;0.70;;;0.70;;
18838;SDS011;9548;56.920;14.804;2022-08-01T09:46:23;3.50;;;1.00;;
18838;SDS011;9548;56.920;14.804;2022-08-01T09:48:56;1.65;;;0.95;;
18838;SDS011;9548;56.920;14.804;2022-08-01T09:51:27;2.10;;;0.90;;
18838;SDS011;9548;56.920;14.804;2022-08-01T09:53:55;2.65;;;1.00;;
18838;SDS011;9548;56.920;14.804;2022-08-01T09:56:22;1.33;;;0.80;;
18838;SDS011;9548;56.920;14.804;2022-08-01T09:58:50;1.42;;;0.95;;
18838;SDS011;9548;56.920;14.804;2022-08-01T10:01:22;3.05;;;0.90;;
18838;SDS011;9548;56.920;14.804;2022-08-01T10:04:05;3.72;;;1.10;;
18838;SDS011;9548;56.920;14.804;2022-08-01T10:06:33;2.63;;;1.20;;
18838;SDS011;9548;56.920;14.804;2022-08-01T10:09:01;3.17;;;1.10;;
18838;SDS011;9548;56.920;14.804;2022-08-01T10:11:28;1.20;;;0.80;;
18838;SDS011;9548;56.920;14.804;2022-08-01T10:13:57;0.70;;;0.70;;
18838;SDS011;9548;56.920;14.804;2022-08-01T10:16:26;4.15;;;1.13;;
18838;SDS011;9548;56.920;14.804;2022-08-01T10:18:54;1.20;;;1.10;;
18838;SDS011;9548;56.920;14.804;2022-08-01T10:21:24;1.50;;;1.00;;
18838;SDS011;9548;56.920;14.804;2022-08-01T10:23:54;1.15;;;0.80;;
18838;SDS011;9548;56.920;14.804;2022-08-01T10:26:22;3.33;;;0.70;;
18838;SDS011;9548;56.920;14.804;2022-08-01T10:28:53;0.73;;;0.73;;
18838;SDS011;9548;56.920;14.804;2022-08-01T10:31:20;3.50;;;0.82;;
18838;SDS011;9548;56.920;14.804;2022-08-01T10:33:47;0.93;;;0.80;;
18838;SDS011;9548;56.920;14.804;2022-08-01T10:36:16;1.27;;;0.93;;
18838;SDS011;9548;56.920;14.804;2022-08-01T10:38:46;1.67;;;0.90;;
18838;SDS011;9548;56.920;14.804;2022-08-01T10:41:13;1.23;;;0.70;;
18838;SDS011;9548;56.920;14.804;2022-08-01T10:43:41;1.15;;;1.00;;
18838;SDS011;9548;56.920;14.804;2022-08-01T10:46:08;2.33;;;0.82;;
18838;SDS011;9548;56.920;14.804;2022-08-01T10:48:39;5.82;;;1.05;;
18838;SDS011;9548;56.920;14.804;2022-08-01T10:51:11;2.47;;;1.00;;
18838;SDS011;9548;56.920;14.804;2022-08-01T10:53:47;2.20;;;1.00;;
18838;SDS011;9548;56.920;14.804;2022-08-01T10:56:15;1.45;;;0.82;;
18838;SDS011;9548;56.920;14.804;2022-08-01T10:58:43;1.25;;;0.80;;
18838;SDS011;9548;56.920;14.804;2022-08-01T11:01:16;1.30;;;0.93;;
18838;SDS011;9548;56.920;14.804;2022-08-01T11:03:57;0.80;;;0.80;;
18838;SDS011;9548;56.920;14.804;2022-08-01T11:06:35;2.53;;;0.85;;
18838;SDS011;9548;56.920;14.804;2022-08-01T11:09:15;2.40;;;1.00;;
18838;SDS011;9548;56.920;14.804;2022-08-01T11:11:59;3.03;;;0.88;;
18838;SDS011;9548;56.920;14.804;2022-08-01T11:14:30;1.50;;;0.85;;
18838;SDS011;9548;56.920;14.804;2022-08-01T11:20:05;1.75;;;0.88;;
18838;SDS011;9548;56.920;14.804;2022-08-01T11:26:07;1.35;;;1.23;;
18838;SDS011;9548;56.920;14.804;2022-08-01T11:28:36;1.15;;;1.00;;
18838;SDS011;9548;56.920;14.804;2022-08-01T11:33:57;1.10;;;1.00;;
18838;SDS011;9548;56.920;14.804;2022-08-01T11:36:25;1.65;;;0.98;;
18838;SDS011;9548;56.920;14.804;2022-08-01T11:39:12;4.03;;;1.10;;
18838;SDS011;9548;56.920;14.804;2022-08-01T11:41:42;2.15;;;1.33;;
18838;SDS011;9548;56.920;14.804;2022-08-01T11:44:11;1.88;;;1.20;;
18838;SDS011;9548;56.920;14.804;2022-08-01T11:46:50;1.92;;;1.40;;
18838;SDS011;9548;56.920;14.804;2022-08-01T11:49:26;1.58;;;1.45;;
18838;SDS011;9548;56.920;14.804;2022-08-01T11:52:03;2.47;;;1.52;;
18838;SDS011;9548;56.920;14.804;2022-08-01T11:54:33;2.50;;;1.38;;
18838;SDS011;9548;56.920;14.804;2022-08-01T11:57:03;2.17;;;1.30;;
18838;SDS011;9548;56.920;14.804;2022-08-01T11:59:35;3.42;;;1.10;;
18838;SDS011;9548;56.920;14.804;2022-08-01T12:02:04;1.35;;;1.20;;
18838;SDS011;9548;56.920;14.804;2022-08-01T12:04:49;1.65;;;1.20;;
18838;SDS011;9548;56.920;14.804;2022-08-01T12:07:21;1.00;;;1.00;;
18838;SDS011;9548;56.920;14.804;2022-08-01T12:09:56;3.05;;;1.23;;
18838;SDS011;9548;56.920;14.804;2022-08-01T12:12:27;2.30;;;1.30;;
18838;SDS011;9548;56.920;14.804;2022-08-01T12:14:56;1.75;;;1.17;;
18838;SDS011;9548;56.920;14.804;2022-08-01T12:17:28;2.30;;;1.33;;
18838;SDS011;9548;56.920;14.804;2022-08-01T12:19:59;5.45;;;1.10;;
18838;SDS011;9548;56.920;14.804;2022-08-01T12:22:26;1.35;;;1.08;;
18838;SDS011;9548;56.920;14.804;2022-08-01T12:24:54;1.02;;;1.00;;
18838;SDS011;9548;56.920;14.804;2022-08-01T12:27:27;1.20;;;1.00;;
18838;SDS011;9548;56.920;14.804;2022-08-01T12:29:55;1.77;;;1.25;;
18838;SDS011;9548;56.920;14.804;2022-08-01T12:32:24;1.30;;;1.13;;
18838;SDS011;9548;56.920;14.804;2022-08-01T12:34:54;1.55;;;1.23;;
18838;SDS011;9548;56.920;14.804;2022-08-01T12:37:22;2.25;;;1.10;;
18838;SDS011;9548;56.920;14.804;2022-08-01T12:39:49;1.75;;;1.25;;
18838;SDS011;9548;56.920;14.804;2022-08-01T12:42:16;3.90;;;1.23;;
18838;SDS011;9548;56.920;14.804;2022-08-01T12:44:46;1.75;;;1.50;;
18838;SDS011;9548;56.920;14.804;2022-08-01T12:47:16;2.60;;;1.50;;
18838;SDS011;9548;56.920;14.804;2022-08-01T12:49:45;2.08;;;1.60;;
18838;SDS011;9548;56.920;14.804;2022-08-01T12:52:14;1.20;;;1.20;;
18838;SDS011;9548;56.920;14.804;2022-08-01T12:55:02;1.75;;;1.30;;
18838;SDS011;9548;56.920;14.804;2022-08-01T12:57:33;1.40;;;1.27;;
18838;SDS011;9548;56.920;14.804;2022-08-01T13:00:12;1.85;;;1.35;;
18838;SDS011;9548;56.920;14.804;2022-08-01T13:02:42;1.60;;;1.33;;
18838;SDS011;9548;56.920;14.804;2022-08-01T13:05:10;3.65;;;1.25;;
18838;SDS011;9548;56.920;14.804;2022-08-01T13:07:42;1.38;;;1.27;;
18838;SDS011;9548;56.920;14.804;2022-08-01T13:10:11;3.50;;;1.40;;
18838;SDS011;9548;56.920;14.804;2022-08-01T13:12:39;3.85;;;1.48;;
18838;SDS011;9548;56.920;14.804;2022-08-01T13:15:19;2.95;;;1.33;;
18838;SDS011;9548;56.920;14.804;2022-08-01T13:17:51;1.90;;;1.40;;
18838;SDS011;9548;56.920;14.804;2022-08-01T13:20:23;1.20;;;1.10;;
18838;SDS011;9548;56.920;14.804;2022-08-01T13:22:51;1.95;;;1.52;;
18838;SDS011;9548;56.920;14.804;2022-08-01T13:25:18;1.80;;;1.40;;
18838;SDS011;9548;56.920;14.804;2022-08-01T13:27:46;1.73;;;1.20;;
18838;SDS011;9548;56.920;14.804;2022-08-01T13:30:13;4.03;;;2.05;;
18838;SDS011;9548;56.920;14.804;2022-08-01T13:32:43;1.45;;;1.33;;
18838;SDS011;9548;56.920;14.804;2022-08-01T13:35:11;1.70;;;1.60;;
18838;SDS011;9548;56.920;14.804;2022-08-01T13:37:39;2.65;;;1.40;;
18838;SDS011;9548;56.920;14.804;2022-08-01T13:40:08;4.43;;;1.48;;
18838;SDS011;9548;56.920;14.804;2022-08-01T13:42:37;2.30;;;1.70;;
18838;SDS011;9548;56.920;14.804;2022-08-01T13:45:04;1.48;;;1.38;;
18838;SDS011;9548;56.920;14.804;2022-08-01T13:47:35;1.42;;;1.20;;
18838;SDS011;9548;56.920;14.804;2022-08-01T13:50:04;5.00;;;1.45;;
18838;SDS011;9548;56.920;14.804;2022-08-01T13:52:32;2.22;;;1.25;;
18838;SDS011;9548;56.920;14.804;2022-08-01T13:54:59;1.20;;;1.05;;
18838;SDS011;9548;56.920;14.804;2022-08-01T13:57:27;0.95;;;0.95;;
18838;SDS011;9548;56.920;14.804;2022-08-01T13:59:54;2.28;;;1.20;;
18838;SDS011;9548;56.920;14.804;2022-08-01T14:02:24;1.20;;;1.10;;
18838;SDS011;9548;56.920;14.804;2022-08-01T14:04:52;2.45;;;1.50;;
18838;SDS011;9548;56.920;14.804;2022-08-01T14:07:20;3.03;;;1.27;;
18838;SDS011;9548;56.920;14.804;2022-08-01T14:09:47;1.30;;;1.20;;
18838;SDS011;9548;56.920;14.804;2022-08-01T14:12:14;1.15;;;1.00;;
18838;SDS011;9548;56.920;14.804;2022-08-01T14:14:41;2.53;;;1.00;;
18838;SDS011;9548;56.920;14.804;2022-08-01T14:17:08;1.45;;;1.35;;
18838;SDS011;9548;56.920;14.804;2022-08-01T14:19:35;2.70;;;1.70;;
18838;SDS011;9548;56.920;14.804;2022-08-01T14:22:02;1.67;;;1.20;;
18838;SDS011;9548;56.920;14.804;2022-08-01T14:24:31;1.75;;;1.30;;
18838;SDS011;9548;56.920;14.804;2022-08-01T14:26:58;2.05;;;1.60;;
18838;SDS011;9548;56.920;14.804;2022-08-01T14:29:25;1.70;;;1.33;;
18838;SDS011;9548;56.920;14.804;2022-08-01T14:31:52;1.60;;;1.27;;
18838;SDS011;9548;56.920;14.804;2022-08-01T14:34:19;2.50;;;1.35;;
18838;SDS011;9548;56.920;14.804;2022-08-01T14:36:45;2.92;;;1.27;;
18838;SDS011;9548;56.920;14.804;2022-08-01T14:39:13;3.50;;;1.55;;
18838;SDS011;9548;56.920;14.804;2022-08-01T14:41:41;1.88;;;1.60;;
18838;SDS011;9548;56.920;14.804;2022-08-01T14:44:08;1.63;;;1.50;;
18838;SDS011;9548;56.920;14.804;2022-08-01T14:46:35;1.02;;;1.02;;
18838;SDS011;9548;56.920;14.804;2022-08-01T14:49:02;1.83;;;1.50;;
18838;SDS011;9548;56.920;14.804;2022-08-01T14:51:29;2.15;;;1.40;;
18838;SDS011;9548;56.920;14.804;2022-08-01T14:53:58;3.97;;;1.95;;
18838;SDS011;9548;56.920;14.804;2022-08-01T14:56:25;2.22;;;1.48;;
18838;SDS011;9548;56.920;14.804;2022-08-01T14:58:54;2.13;;;1.60;;
18838;SDS011;9548;56.920;14.804;2022-08-01T15:01:21;2.58;;;1.88;;
18838;SDS011;9548;56.920;14.804;2022-08-01T15:03:47;1.48;;;1.38;;
18838;SDS011;9548;56.920;14.804;2022-08-01T15:06:15;1.58;;;1.48;;
18838;SDS011;9548;56.920;14.804;2022-08-01T15:08:42;2.13;;;1.63;;